createdAt,value
2019-04-05T00:02:01.086Z,29.63
2019-04-05T00:04:36.129Z,20.10
2019-04-05T00:07:11.216Z,28.10
2019-04-05T00:09:47.434Z,26.97
2019-04-05T00:12:22.462Z,23.90
2019-04-05T00:14:57.503Z,25.50
2019-04-05T00:17:32.525Z,25.87
2019-04-05T00:20:08.687Z,27.37
2019-04-05T00:22:43.733Z,25.77
2019-04-05T00:25:18.754Z,31.67
2019-04-05T00:27:55.153Z,24.60
2019-04-05T00:30:30.176Z,30.87
2019-04-05T00:33:05.562Z,28.43
2019-04-05T00:35:40.876Z,41.43
2019-04-05T00:38:15.938Z,24.80
2019-04-05T00:40:51.257Z,21.60
2019-04-05T00:43:27.249Z,24.57
2019-04-05T00:46:02.274Z,31.27
2019-04-05T00:48:37.717Z,22.70
2019-04-05T00:51:12.752Z,30.83
2019-04-05T00:53:47.792Z,36.43
2019-04-05T00:56:23.110Z,43.30
2019-04-05T00:58:59.291Z,41.97
2019-04-05T01:01:34.782Z,36.90
2019-04-05T01:04:09.814Z,35.60
2019-04-05T01:06:45.146Z,36.13
2019-04-05T01:09:20.181Z,38.30
2019-04-05T01:11:55.215Z,28.03
2019-04-05T01:14:30.529Z,49.10
2019-04-05T01:17:05.873Z,29.30
2019-04-05T01:19:43.813Z,26.20
2019-04-05T01:22:21.673Z,26.90
2019-04-05T01:24:58.365Z,26.77
2019-04-05T01:27:37.473Z,26.70
2019-04-05T01:30:15.522Z,33.90
2019-04-05T01:32:50.542Z,27.87
2019-04-05T01:35:25.639Z,40.77
2019-04-05T01:38:01.058Z,25.03
2019-04-05T01:40:38.327Z,23.37
2019-04-05T01:43:13.354Z,33.57
2019-04-05T01:45:53.854Z,43.90
2019-04-05T01:48:26.925Z,31.40
2019-04-05T01:51:02.450Z,22.63
2019-04-05T01:53:37.661Z,30.30
2019-04-05T01:56:12.726Z,34.50
2019-04-05T01:58:47.769Z,32.47
2019-04-05T02:01:22.898Z,38.30
2019-04-05T02:03:58.224Z,30.77
2019-04-05T02:06:33.967Z,24.83
2019-04-05T02:09:11.391Z,24.27
2019-04-05T02:11:46.510Z,24.27
2019-04-05T02:14:21.549Z,25.33
2019-04-05T02:16:56.847Z,23.03
2019-04-05T02:19:31.875Z,32.03
2019-04-05T02:22:06.989Z,25.50
2019-04-05T02:24:42.283Z,25.07
2019-04-05T02:27:18.261Z,28.07
2019-04-05T02:29:53.286Z,33.20
2019-04-05T02:32:28.335Z,40.60
2019-04-05T02:35:04.580Z,35.50
2019-04-05T02:37:39.883Z,25.87
2019-04-05T02:40:17.022Z,29.57
2019-04-05T02:42:55.439Z,26.03
2019-04-05T02:45:33.254Z,29.97
2019-04-05T02:48:11.954Z,25.30
2019-04-05T02:50:50.462Z,25.67
2019-04-05T02:53:25.584Z,27.33
2019-04-05T02:56:03.162Z,26.63
2019-04-05T02:58:40.169Z,25.17
2019-04-05T03:01:16.861Z,34.93
2019-04-05T03:03:52.104Z,30.27
2019-04-05T03:06:28.220Z,38.57
2019-04-05T03:09:06.219Z,34.30
2019-04-05T03:11:44.260Z,36.20
2019-04-05T03:14:21.251Z,28.50
2019-04-05T03:16:56.750Z,26.47
2019-04-05T03:19:34.481Z,27.47
2019-04-05T03:22:14.231Z,33.67
2019-04-05T03:24:49.895Z,35.67
2019-04-05T03:27:28.396Z,34.53
2019-04-05T03:30:04.668Z,29.13
2019-04-05T03:32:40.188Z,31.67
2019-04-05T03:35:15.656Z,35.03
2019-04-05T03:37:51.096Z,33.57
2019-04-05T03:40:26.871Z,33.57
2019-04-05T03:43:02.337Z,22.47
2019-04-05T03:45:37.768Z,40.60
2019-04-05T03:48:13.165Z,32.50
2019-04-05T03:50:48.303Z,39.10
2019-04-05T03:53:24.653Z,32.93
2019-04-05T03:55:59.761Z,30.60
2019-04-05T03:58:34.884Z,31.27
2019-04-05T04:01:10.067Z,33.97
2019-04-05T04:03:45.533Z,35.97
2019-04-05T04:06:21.639Z,30.70
2019-04-05T04:08:56.761Z,23.73
2019-04-05T04:11:32.293Z,31.67
2019-04-05T04:14:08.550Z,25.63
2019-04-05T04:16:43.964Z,23.60
2019-04-05T04:19:19.240Z,33.20
2019-04-05T04:22:21.037Z,28.17
2019-04-05T04:24:56.887Z,26.47
2019-04-05T04:27:32.278Z,34.27
2019-04-05T04:30:07.871Z,27.37
2019-04-05T04:32:43.283Z,34.63
2019-04-05T04:35:19.269Z,31.63
2019-04-05T04:37:54.561Z,34.50
2019-04-05T04:40:30.048Z,24.47
2019-04-05T04:43:06.190Z,31.00
2019-04-05T04:45:42.408Z,39.20
2019-04-05T04:48:17.991Z,31.37
2019-04-05T04:50:54.615Z,30.03
2019-04-05T04:53:29.829Z,30.40
2019-04-05T04:56:05.253Z,37.67
2019-04-05T04:58:40.297Z,31.47
2019-04-05T05:01:16.650Z,31.10
2019-04-05T05:03:51.678Z,39.87
2019-04-05T05:06:26.728Z,37.33
2019-04-05T05:09:01.825Z,33.57
2019-04-05T05:11:38.095Z,32.33
2019-04-05T05:14:13.137Z,39.43
2019-04-05T05:16:48.601Z,32.33
2019-04-05T05:19:24.054Z,38.63
2019-04-05T05:21:59.109Z,31.80
2019-04-05T05:24:34.389Z,36.87
2019-04-05T05:27:12.660Z,36.17
2019-04-05T05:29:47.957Z,46.20
2019-04-05T05:32:23.239Z,37.20
2019-04-05T05:35:02.161Z,41.43
2019-04-05T05:37:36.658Z,44.60
2019-04-05T05:40:12.313Z,36.73
2019-04-05T05:42:47.521Z,32.50
2019-04-05T05:45:22.806Z,40.43
2019-04-05T05:47:57.909Z,46.90
2019-04-05T05:50:33.717Z,36.87
2019-04-05T05:53:08.753Z,43.50
2019-04-05T05:55:44.979Z,46.57
2019-04-05T05:58:21.353Z,45.23
2019-04-05T06:01:00.098Z,45.77
2019-04-05T06:03:35.206Z,41.07
2019-04-05T06:06:11.433Z,35.57
2019-04-05T06:08:47.665Z,38.17
2019-04-05T06:11:25.045Z,33.37
2019-04-05T06:14:00.387Z,45.23
2019-04-05T06:16:45.765Z,35.87
2019-04-05T06:19:13.853Z,33.90
2019-04-05T06:21:50.483Z,34.07
2019-04-05T06:24:26.262Z,31.57
2019-04-05T06:27:01.382Z,37.97
2019-04-05T06:29:36.737Z,36.93
2019-04-05T06:32:12.388Z,46.33
2019-04-05T06:34:47.503Z,41.53
2019-04-05T06:37:22.585Z,44.20
2019-04-05T06:39:58.016Z,39.37
2019-04-05T06:42:33.038Z,39.77
2019-04-05T06:45:08.590Z,52.23
2019-04-05T06:47:44.892Z,43.50
2019-04-05T06:50:21.877Z,44.50
2019-04-05T06:52:57.287Z,45.87
2019-04-05T06:55:34.575Z,70.43
2019-04-05T06:58:10.507Z,44.80
2019-04-05T07:00:57.085Z,46.27
2019-04-05T07:03:24.412Z,43.60
2019-04-05T07:06:02.869Z,45.27
2019-04-05T07:08:39.082Z,58.67
2019-04-05T07:11:15.641Z,53.67
2019-04-05T07:13:50.985Z,55.17
2019-04-05T07:16:26.400Z,54.87
2019-04-05T07:19:03.010Z,58.93
2019-04-05T07:21:38.231Z,64.37
2019-04-05T07:24:14.268Z,69.87
2019-04-05T07:26:50.260Z,54.67
2019-04-05T07:29:25.286Z,55.83
2019-04-05T07:32:02.282Z,60.10
2019-04-05T07:34:37.501Z,53.53
2019-04-05T07:37:12.549Z,54.77
2019-04-05T07:39:49.762Z,56.80
2019-04-05T07:42:24.798Z,65.07
2019-04-05T07:45:00.114Z,64.40
2019-04-05T07:47:35.215Z,68.50
2019-04-05T07:50:11.002Z,62.67
2019-04-05T07:52:46.030Z,68.60
2019-04-05T07:55:22.145Z,80.87
2019-04-05T07:57:58.129Z,69.70
2019-04-05T08:00:50.538Z,69.67
2019-04-05T08:03:26.149Z,82.10
2019-04-05T08:06:01.593Z,69.90
2019-04-05T08:08:46.022Z,75.60
2019-04-05T08:11:23.343Z,69.17
2019-04-05T08:14:00.725Z,62.83
2019-04-05T08:16:38.035Z,71.43
2019-04-05T08:19:16.149Z,87.13
2019-04-05T08:21:51.491Z,74.37
2019-04-05T08:24:26.517Z,80.97
2019-04-05T08:27:01.971Z,80.37
2019-04-05T08:29:37.285Z,82.70
2019-04-05T08:32:14.705Z,79.20
2019-04-05T08:34:50.317Z,75.87
2019-04-05T08:37:26.286Z,73.47
2019-04-05T08:40:01.622Z,91.03
2019-04-05T08:42:37.269Z,91.43
2019-04-05T08:45:12.786Z,83.80
2019-04-05T08:47:47.832Z,82.13
2019-04-05T08:50:23.193Z,83.43
2019-04-05T08:52:58.638Z,82.03
2019-04-05T08:55:33.683Z,78.83
2019-04-05T08:58:11.066Z,75.83
2019-04-05T09:00:46.175Z,77.87
2019-04-05T09:03:21.323Z,94.37
2019-04-05T09:05:56.605Z,82.67
2019-04-05T09:08:31.663Z,87.37
2019-04-05T09:11:07.057Z,77.10
2019-04-05T09:13:43.528Z,81.53
2019-04-05T09:16:19.429Z,89.03
2019-04-05T09:18:54.929Z,92.23
2019-04-05T09:21:30.915Z,84.30
2019-04-05T09:24:06.331Z,88.57
2019-04-05T09:26:41.673Z,98.23
2019-04-05T09:29:19.010Z,98.87
2019-04-05T09:31:54.071Z,107.13
2019-04-05T09:34:29.444Z,91.50
2019-04-05T09:37:04.785Z,99.80
2019-04-05T09:39:39.853Z,94.43
2019-04-05T09:42:14.891Z,96.77
2019-04-05T09:44:49.937Z,86.63
2019-04-05T09:47:26.258Z,108.17
2019-04-05T09:50:01.318Z,102.63
2019-04-05T09:52:39.993Z,83.83
2019-04-05T09:55:14.945Z,99.53
2019-04-05T09:57:50.070Z,100.33
2019-04-05T10:00:28.798Z,97.77
2019-04-05T10:03:04.561Z,106.07
2019-04-05T10:05:39.845Z,98.77
2019-04-05T10:08:14.889Z,106.57
2019-04-05T10:10:50.103Z,113.67
2019-04-05T10:13:25.420Z,130.83
2019-04-05T10:16:00.794Z,114.53
2019-04-05T10:18:37.831Z,104.30
2019-04-05T10:21:12.982Z,115.00
2019-04-05T10:23:48.103Z,100.63
2019-04-05T10:26:23.202Z,108.00
2019-04-05T10:28:59.237Z,103.73
2019-04-05T10:31:34.303Z,96.50
2019-04-05T10:34:09.688Z,96.47
2019-04-05T10:36:49.338Z,100.63
2019-04-05T10:39:24.385Z,101.73
2019-04-05T10:42:03.835Z,97.93
2019-04-05T10:44:36.195Z,102.37
2019-04-05T10:47:11.506Z,104.13
2019-04-05T10:49:47.811Z,96.60
2019-04-05T10:52:22.863Z,99.13
2019-04-05T10:54:58.145Z,101.60
2019-04-05T10:57:33.493Z,97.87
2019-04-05T11:00:15.705Z,94.47
2019-04-05T11:02:51.677Z,94.47
2019-04-05T11:05:28.064Z,101.33
2019-04-05T11:08:03.100Z,98.50
2019-04-05T11:10:38.477Z,96.33
2019-04-05T11:13:14.558Z,97.40
2019-04-05T11:15:49.607Z,101.97
2019-04-05T11:18:24.981Z,110.07
2019-04-05T11:21:00.920Z,108.50
2019-04-05T11:23:35.972Z,116.53
2019-04-05T11:26:16.912Z,111.17
2019-04-05T11:28:53.031Z,105.23
2019-04-05T11:31:28.143Z,98.67
2019-04-05T11:34:03.238Z,101.90
2019-04-05T11:36:40.842Z,101.80
2019-04-05T11:39:16.101Z,91.37
2019-04-05T11:41:55.219Z,93.37
2019-04-05T11:44:33.204Z,99.03
2019-04-05T11:47:12.281Z,86.70
2019-04-05T11:49:48.369Z,74.87
2019-04-05T11:52:24.678Z,66.10
2019-04-05T11:55:00.790Z,83.10
2019-04-05T11:57:36.069Z,69.80
2019-04-05T12:00:14.494Z,62.37
2019-04-05T12:02:51.208Z,63.63
2019-04-05T12:05:29.031Z,73.17
2019-04-05T12:08:06.148Z,66.60
2019-04-05T12:10:42.237Z,71.93
2019-04-05T12:13:17.822Z,63.37
2019-04-05T12:15:54.431Z,84.63
2019-04-05T12:18:34.825Z,65.80
2019-04-05T12:21:09.932Z,66.60
2019-04-05T12:23:45.060Z,72.90
2019-04-05T12:26:20.413Z,89.63
2019-04-05T12:28:59.112Z,63.27
2019-04-05T12:31:38.611Z,54.33
2019-04-05T12:34:15.171Z,79.07
2019-04-05T12:36:50.581Z,58.80
2019-04-05T12:39:43.471Z,54.90
2019-04-05T12:42:19.633Z,54.87
2019-04-05T12:45:00.552Z,55.37
2019-04-05T12:47:39.085Z,67.20
2019-04-05T12:50:18.335Z,52.77
2019-04-05T12:56:00.698Z,55.47
2019-04-05T12:58:48.433Z,61.93
2019-04-05T13:01:23.932Z,85.12
2019-04-05T13:03:58.954Z,58.73
2019-04-05T13:06:36.011Z,82.90
2019-04-05T13:09:35.225Z,72.87
2019-04-05T13:12:17.317Z,56.03
2019-04-05T13:15:16.811Z,66.57
2019-04-05T13:18:02.249Z,55.45
2019-04-05T13:20:45.673Z,50.80
2019-04-05T13:23:30.632Z,52.20
2019-04-05T13:26:19.395Z,53.90
2019-04-05T13:29:00.832Z,64.50
2019-04-05T13:31:38.042Z,56.37
2019-04-05T13:34:18.395Z,58.87
2019-04-05T13:37:03.910Z,77.03
2019-04-05T13:39:41.181Z,58.83
2019-04-05T13:42:16.536Z,56.93
2019-04-05T13:45:00.858Z,61.63
2019-04-05T13:47:38.887Z,57.20
2019-04-05T13:50:15.443Z,71.73
2019-04-05T13:52:52.652Z,56.75
2019-04-05T13:55:27.721Z,53.07
2019-04-05T13:58:10.735Z,55.40
2019-04-05T14:00:48.330Z,56.97
2019-04-05T14:06:30.760Z,64.83
2019-04-05T14:09:10.266Z,69.20
2019-04-05T14:11:45.485Z,64.90
2019-04-05T14:14:20.934Z,56.00
2019-04-05T14:16:55.962Z,67.50
2019-04-05T14:19:31.337Z,59.85
2019-04-05T14:22:08.823Z,59.70
2019-04-05T14:24:45.505Z,56.47
2019-04-05T14:27:21.730Z,58.70
2019-04-05T14:29:57.015Z,58.17
2019-04-05T14:32:37.374Z,56.97
2019-04-05T14:35:15.515Z,63.60
2019-04-05T14:37:52.328Z,67.23
2019-04-05T14:40:33.144Z,61.43
2019-04-05T14:43:15.004Z,77.97
2019-04-05T14:45:50.355Z,68.53
2019-04-05T14:48:27.329Z,89.20
2019-04-05T14:51:02.197Z,89.45
2019-04-05T14:53:37.582Z,73.67
2019-04-05T14:56:13.066Z,82.50
2019-04-05T14:58:48.086Z,76.90
2019-04-05T15:01:23.538Z,85.33
2019-04-05T15:04:01.488Z,98.33
2019-04-05T15:06:42.333Z,92.27
2019-04-05T15:09:17.443Z,79.63
2019-04-05T15:11:52.623Z,74.83
2019-04-05T15:14:31.464Z,75.53
2019-04-05T15:17:12.908Z,64.00
2019-04-05T15:19:47.946Z,72.57
2019-04-05T15:22:28.465Z,62.73
2019-04-05T15:25:04.714Z,68.37
2019-04-05T15:27:40.068Z,73.47
2019-04-05T15:30:15.426Z,65.20
2019-04-05T15:32:51.484Z,66.17
2019-04-05T15:35:28.277Z,65.03
2019-04-05T15:38:03.719Z,67.47
2019-04-05T15:40:42.495Z,67.43
2019-04-05T15:43:17.573Z,66.00
2019-04-05T15:45:54.884Z,77.17
2019-04-05T15:48:29.981Z,70.17
2019-04-05T15:51:05.007Z,68.33
2019-04-05T15:53:40.554Z,66.93
2019-04-05T15:56:15.681Z,77.83
2019-04-05T15:58:52.379Z,70.43
2019-04-05T16:01:27.818Z,64.37
2019-04-05T16:04:09.469Z,69.23
2019-04-05T16:06:45.898Z,71.43
2019-04-05T16:09:26.578Z,70.17
2019-04-05T16:12:02.057Z,66.00
2019-04-05T16:14:37.253Z,69.97
2019-04-05T16:17:17.235Z,66.50
2019-04-05T16:19:52.351Z,66.73
2019-04-05T16:22:31.552Z,73.87
2019-04-05T16:25:06.233Z,68.80
2019-04-05T16:27:41.350Z,75.43
2019-04-05T16:30:17.658Z,65.07
2019-04-05T16:32:53.791Z,83.37
2019-04-05T16:35:29.804Z,80.93
2019-04-05T16:38:05.146Z,76.90
2019-04-05T16:40:41.374Z,65.80
2019-04-05T16:43:16.650Z,85.40
2019-04-05T16:45:51.697Z,68.47
2019-04-05T16:48:26.787Z,70.03
2019-04-05T16:51:01.858Z,69.23
2019-04-05T16:53:39.800Z,64.00
2019-04-05T16:56:14.937Z,99.83
2019-04-05T16:58:50.386Z,75.23
2019-04-05T17:01:27.358Z,74.03
2019-04-05T17:04:04.496Z,72.77
2019-04-05T17:06:41.826Z,64.30
2019-04-05T17:09:16.880Z,79.90
2019-04-05T17:11:51.902Z,72.37
2019-04-05T17:14:27.216Z,82.00
2019-04-05T17:17:02.237Z,80.47
2019-04-05T17:19:38.179Z,88.60
2019-04-05T17:22:13.208Z,75.90
2019-04-05T17:24:48.304Z,80.27
2019-04-05T17:27:23.647Z,96.87
2019-04-05T17:29:58.971Z,77.63
2019-04-05T17:32:35.529Z,79.80
2019-04-05T17:35:11.099Z,80.13
2019-04-05T17:37:47.306Z,68.57
2019-04-05T17:40:23.899Z,82.50
2019-04-05T17:42:59.842Z,73.20
2019-04-05T17:45:35.854Z,81.60
2019-04-05T17:48:13.155Z,80.83
2019-04-05T17:50:48.593Z,81.70
2019-04-05T17:53:24.598Z,74.83
2019-04-05T17:55:59.634Z,80.07
2019-04-05T17:58:37.835Z,83.90
2019-04-05T18:01:14.361Z,89.27
2019-04-05T18:03:49.681Z,88.57
2019-04-05T18:06:26.359Z,118.47
2019-04-05T18:09:01.527Z,95.97
2019-04-05T18:11:38.284Z,90.50
2019-04-05T18:14:14.691Z,80.57
2019-04-05T18:16:50.803Z,75.73
2019-04-05T18:19:26.682Z,91.87
2019-04-05T18:22:02.082Z,81.77
2019-04-05T18:24:38.059Z,84.70
2019-04-05T18:27:14.367Z,70.87
2019-04-05T18:29:51.073Z,77.80
2019-04-05T18:32:26.722Z,74.17
2019-04-05T18:35:04.361Z,76.90
2019-04-05T18:37:39.832Z,83.10
2019-04-05T18:40:17.780Z,87.40
2019-04-05T18:42:52.964Z,85.70
2019-04-05T18:45:29.211Z,92.80
2019-04-05T18:48:07.868Z,80.90
2019-04-05T18:50:48.504Z,98.90
2019-04-05T18:53:36.743Z,79.23
2019-04-05T18:56:02.309Z,78.13
2019-04-05T18:58:43.869Z,90.33
2019-04-05T19:01:21.527Z,76.90
2019-04-05T19:04:21.438Z,99.70
2019-04-05T19:06:56.572Z,123.33
2019-04-05T19:09:31.655Z,85.37
2019-04-05T19:12:08.022Z,87.47
2019-04-05T19:14:47.856Z,84.73
2019-04-05T19:17:24.490Z,81.17
2019-04-05T19:20:00.302Z,76.53
2019-04-05T19:22:35.465Z,83.00
2019-04-05T19:25:11.293Z,72.47
2019-04-05T19:27:46.603Z,84.53
2019-04-05T19:49:26.567Z,87.70
2019-04-05T19:52:01.820Z,73.73
2019-04-05T19:54:36.879Z,78.53
2019-04-05T19:57:12.728Z,106.43
2019-04-05T19:59:48.466Z,83.83
2019-04-05T20:02:23.745Z,75.53
2019-04-05T20:05:00.242Z,87.17
2019-04-05T20:07:37.542Z,85.83
2019-04-05T20:10:12.958Z,81.00
2019-04-05T20:12:48.173Z,86.53
2019-04-05T20:15:25.317Z,84.10
2019-04-05T20:18:00.455Z,68.37
2019-04-05T20:20:36.950Z,88.07
2019-04-05T20:23:12.109Z,81.73
2019-04-05T20:25:48.388Z,81.43
2019-04-05T20:28:23.472Z,84.60
2019-04-05T20:30:58.537Z,78.20
2019-04-05T20:33:34.870Z,69.53
2019-04-05T20:36:09.988Z,76.37
2019-04-05T20:38:45.053Z,74.83
2019-04-05T20:41:20.167Z,79.23
2019-04-05T20:43:58.844Z,81.40
2019-04-05T20:46:34.154Z,74.83
2019-04-05T20:49:09.303Z,68.57
2019-04-05T20:51:44.727Z,71.67
2019-04-05T20:54:24.603Z,73.30
2019-04-05T20:56:56.858Z,76.53
2019-04-05T20:59:31.938Z,72.03
2019-04-05T21:02:07.031Z,75.93
2019-04-05T21:04:42.107Z,114.00
2019-04-05T21:07:17.479Z,102.53
2019-04-05T21:09:53.528Z,75.67
2019-04-05T21:12:28.840Z,77.70
2019-04-05T21:15:05.459Z,76.90
2019-04-05T21:17:40.602Z,76.67
2019-04-05T21:20:16.151Z,72.47
2019-04-05T21:22:51.540Z,78.97
2019-04-05T21:25:26.603Z,77.07
2019-04-05T21:28:01.989Z,77.67
2019-04-05T21:30:37.140Z,69.63
2019-04-05T21:33:12.268Z,71.47
2019-04-05T21:35:47.342Z,76.20
2019-04-05T21:38:22.386Z,75.73
2019-04-05T21:40:57.507Z,72.97
2019-04-05T21:43:32.907Z,97.90
2019-04-05T21:46:08.685Z,76.07
2019-04-05T21:48:45.036Z,87.03
2019-04-05T21:51:20.155Z,74.67
2019-04-05T21:53:55.557Z,75.87
2019-04-05T21:56:30.943Z,81.77
2019-04-05T21:59:06.005Z,81.17
2019-04-05T22:01:41.256Z,71.37
2019-04-05T22:04:16.447Z,75.03
2019-04-05T22:06:53.794Z,78.00
2019-04-05T22:09:30.062Z,69.43
2019-04-05T22:12:05.260Z,95.70
2019-04-05T22:14:41.467Z,75.87
2019-04-05T22:17:16.881Z,75.10
2019-04-05T22:19:52.230Z,76.80
2019-04-05T22:22:27.526Z,80.87
2019-04-05T22:25:05.000Z,81.80
2019-04-05T22:27:40.038Z,76.73
2019-04-05T22:30:15.160Z,77.20
2019-04-05T22:32:50.299Z,74.63
2019-04-05T22:35:25.336Z,79.93
2019-04-05T22:38:00.635Z,75.50
2019-04-05T22:40:36.590Z,82.40
2019-04-05T22:43:11.721Z,85.30
2019-04-05T22:45:46.751Z,78.37
2019-04-05T22:48:21.811Z,86.50
2019-04-05T22:50:56.977Z,74.17
2019-04-05T22:53:32.337Z,77.67
2019-04-05T22:56:08.332Z,85.93
2019-04-05T22:58:44.317Z,80.67
2019-04-05T23:01:19.356Z,79.70
2019-04-05T23:03:54.415Z,83.90
2019-04-05T23:06:29.435Z,77.60
2019-04-05T23:09:07.176Z,75.00
2019-04-05T23:11:42.219Z,160.93
2019-04-05T23:14:19.254Z,78.73
2019-04-05T23:16:54.364Z,81.83
2019-04-05T23:19:29.736Z,109.43
2019-04-05T23:22:04.864Z,82.90
2019-04-05T23:24:40.152Z,75.57
2019-04-05T23:27:15.545Z,91.23
2019-04-05T23:29:51.464Z,79.20
2019-04-05T23:32:26.525Z,76.47
2019-04-05T23:35:01.864Z,82.97
2019-04-05T23:37:37.257Z,82.40
2019-04-05T23:40:12.823Z,77.27
2019-04-05T23:42:47.884Z,78.60
2019-04-05T23:45:24.154Z,69.67
2019-04-05T23:47:59.218Z,82.50
2019-04-05T23:50:34.515Z,77.27
2019-04-05T23:53:10.532Z,80.63
2019-04-05T23:55:45.621Z,72.77
2019-04-05T23:58:20.652Z,71.97
